Time;durP1;ratioP1;P1;durP2;ratioP2;P2;SDS_P1;SDS_P2;PMS_P1;PMS_P2;Temp;Humidity;BMP_temperature;BMP_pressure;BME280_temperature;BME280_humidity;BME280_pressure;Samples;Min_cycle;Max_cycle;Signal;HPM_P1;HPM_P2
2024/03/08 00:00:37;;;;;;;52.78;28.30;;;6.20;99.90;;;;;;5028563;28;20057;-69
2024/03/08 00:03:04;;;;;;;54.05;29.38;;;6.20;99.90;;;;;;5030564;28;20041;-69
2024/03/08 00:05:31;;;;;;;58.90;30.48;;;6.20;99.90;;;;;;5028368;28;20057;-69
2024/03/08 00:07:59;;;;;;;53.22;27.10;;;6.20;99.90;;;;;;5028062;28;20038;-68
2024/03/08 00:10:28;;;;;;;53.05;31.33;;;6.10;99.90;;;;;;5036934;28;20104;-68
2024/03/08 00:12:55;;;;;;;60.67;29.52;;;6.10;99.90;;;;;;5029831;28;20132;-68
2024/03/08 00:15:22;;;;;;;51.70;28.92;;;6.10;99.90;;;;;;5028084;28;20567;-68
2024/03/08 00:17:50;;;;;;;53.85;28.38;;;6.10;99.90;;;;;;5039326;28;20273;-69
2024/03/08 00:20:20;;;;;;;51.45;29.55;;;6.10;99.90;;;;;;5028766;28;20099;-68
2024/03/08 00:22:46;;;;;;;58.67;29.58;;;6.10;99.90;;;;;;5028119;28;20053;-68
2024/03/08 00:25:14;;;;;;;49.60;28.80;;;6.10;99.90;;;;;;5019661;28;20507;-68
2024/03/08 00:27:41;;;;;;;51.75;28.60;;;6.10;99.90;;;;;;5035821;28;20045;-68
2024/03/08 00:30:08;;;;;;;50.75;28.10;;;6.10;99.90;;;;;;5030692;28;20045;-68
2024/03/08 00:32:36;;;;;;;65.53;30.65;;;6.10;99.90;;;;;;5026796;28;20072;-67
2024/03/08 00:35:06;;;;;;;56.45;30.02;;;6.10;99.90;;;;;;5027100;28;20053;-68
2024/03/08 00:37:34;;;;;;;58.25;31.33;;;6.10;99.90;;;;;;5024592;28;20495;-70
2024/03/08 00:40:01;;;;;;;59.78;29.52;;;6.00;99.90;;;;;;5027624;28;20107;-69
2024/03/08 00:42:28;;;;;;;59.53;31.23;;;6.10;99.90;;;;;;5015469;28;20046;-69
2024/03/08 00:44:55;;;;;;;52.53;29.92;;;6.10;99.90;;;;;;5030486;28;20049;-68
2024/03/08 00:47:21;;;;;;;61.22;30.65;;;6.10;99.90;;;;;;5038988;28;20045;-68
2024/03/08 00:49:48;;;;;;;55.22;30.73;;;6.10;99.90;;;;;;5026652;28;20107;-69
2024/03/08 00:52:15;;;;;;;52.60;28.00;;;6.10;99.90;;;;;;5026380;28;20536;-68
2024/03/08 00:54:43;;;;;;;56.28;29.05;;;6.10;99.90;;;;;;5026345;28;20057;-69
2024/03/08 00:57:10;;;;;;;52.65;27.33;;;6.10;99.90;;;;;;5039241;28;20041;-68
2024/03/08 00:59:38;;;;;;;60.47;33.65;;;6.20;99.90;;;;;;5026517;28;20077;-68
2024/03/08 01:02:05;;;;;;;59.03;28.55;;;6.10;99.90;;;;;;5025829;28;20053;-68
2024/03/08 01:04:33;;;;;;;56.92;28.63;;;6.20;99.90;;;;;;5027087;28;20049;-67
2024/03/08 01:07:00;;;;;;;52.63;30.42;;;6.20;99.90;;;;;;5026643;28;20096;-69
2024/03/08 01:09:27;;;;;;;54.30;28.35;;;6.10;99.90;;;;;;5019330;28;20183;-69
2024/03/08 01:11:54;;;;;;;54.47;28.08;;;6.20;99.90;;;;;;5036889;28;20045;-68
2024/03/08 01:14:22;;;;;;;63.03;30.02;;;6.20;99.90;;;;;;5012107;28;20048;-68
2024/03/08 01:16:49;;;;;;;60.17;29.50;;;6.00;99.90;;;;;;5020895;28;20739;-69
2024/03/08 01:19:16;;;;;;;56.58;28.58;;;6.20;99.90;;;;;;5026685;28;20128;-68
2024/03/08 01:21:43;;;;;;;54.72;28.92;;;6.20;99.90;;;;;;5026072;28;20155;-69
2024/03/08 01:24:10;;;;;;;51.03;26.05;;;6.20;99.90;;;;;;5026644;28;20076;-68
2024/03/08 01:26:37;;;;;;;55.60;27.80;;;6.20;99.90;;;;;;5024683;28;20045;-69
2024/03/08 01:29:04;;;;;;;52.00;26.73;;;6.20;99.90;;;;;;5025914;28;20045;-67
2024/03/08 01:31:30;;;;;;;54.72;26.98;;;6.20;99.90;;;;;;5025999;28;20057;-69
2024/03/08 01:33:58;;;;;;;56.67;25.95;;;6.10;99.90;;;;;;5026835;28;20045;-68
2024/03/08 01:36:25;;;;;;;46.85;25.70;;;6.20;99.90;;;;;;5026179;28;20047;-68
2024/03/08 01:38:52;;;;;;;41.97;24.15;;;6.10;99.90;;;;;;5025489;28;20069;-69
2024/03/08 01:41:19;;;;;;;51.30;25.65;;;6.10;99.90;;;;;;5029144;28;20045;-68
2024/03/08 01:43:46;;;;;;;48.45;26.50;;;6.10;99.90;;;;;;5026803;28;20512;-68
2024/03/08 01:46:16;;;;;;;45.92;24.33;;;6.10;99.90;;;;;;5028997;28;20064;-68
2024/03/08 01:48:43;;;;;;;48.83;24.45;;;6.10;99.90;;;;;;5036007;28;20046;-68
2024/03/08 01:51:11;;;;;;;48.25;24.92;;;6.10;99.90;;;;;;5025104;28;20139;-69
2024/03/08 01:53:38;;;;;;;56.65;25.73;;;6.10;99.90;;;;;;5028966;28;20044;-68
2024/03/08 01:56:05;;;;;;;49.53;25.58;;;6.10;99.90;;;;;;5030478;28;20107;-68
2024/03/08 01:58:33;;;;;;;50.60;25.83;;;6.10;99.90;;;;;;5025525;28;20555;-69
2024/03/08 02:00:59;;;;;;;49.20;26.40;;;6.00;99.90;;;;;;5042511;28;20050;-69
2024/03/08 02:03:26;;;;;;;46.15;26.45;;;6.00;99.90;;;;;;5033581;28;20047;-71
2024/03/08 02:05:54;;;;;;;50.78;25.77;;;6.00;99.90;;;;;;5026901;28;20528;-70
2024/03/08 02:08:22;;;;;;;44.15;23.65;;;6.00;99.90;;;;;;5036025;28;20048;-66
2024/03/08 02:10:49;;;;;;;42.75;25.17;;;5.90;99.90;;;;;;5027946;28;20071;-68
2024/03/08 02:13:16;;;;;;;49.10;25.27;;;5.90;99.90;;;;;;5025232;28;20037;-69
2024/03/08 02:15:52;;;;;;;54.45;24.88;;;5.90;99.90;;;;;;5026427;28;20057;-68
2024/03/08 02:18:19;;;;;;;47.15;24.67;;;5.90;99.90;;;;;;5021725;28;20049;-69
2024/03/08 02:20:57;;;;;;;53.45;26.27;;;5.80;99.90;;;;;;5025755;28;20041;-68
2024/03/08 02:23:26;;;;;;;55.13;26.02;;;5.80;99.90;;;;;;5030682;28;20052;-68
2024/03/08 02:25:54;;;;;;;51.80;25.13;;;5.80;99.90;;;;;;5017176;28;20049;-68
2024/03/08 02:28:22;;;;;;;46.35;24.38;;;5.80;99.90;;;;;;5032448;28;20491;-68
2024/03/08 02:30:50;;;;;;;48.67;24.65;;;5.80;99.90;;;;;;5025737;28;20053;-68
2024/03/08 02:33:17;;;;;;;42.17;22.77;;;5.70;99.90;;;;;;5020976;28;20049;-68
2024/03/08 02:35:45;;;;;;;46.30;24.98;;;5.70;99.90;;;;;;5024312;28;20049;-69
2024/03/08 02:38:16;;;;;;;45.22;22.83;;;5.80;99.90;;;;;;5026545;28;20094;-67
2024/03/08 02:40:43;;;;;;;48.53;27.10;;;5.60;99.90;;;;;;5032488;28;20060;-68
2024/03/08 02:43:11;;;;;;;44.83;22.83;;;5.60;99.90;;;;;;5025407;28;20052;-67
2024/03/08 02:45:38;;;;;;;47.08;21.75;;;5.60;99.90;;;;;;5022561;28;20049;-68
2024/03/08 02:48:08;;;;;;;43.78;22.48;;;5.60;99.90;;;;;;5024470;28;20488;-68
2024/03/08 02:50:36;;;;;;;42.10;23.40;;;5.60;99.90;;;;;;5025057;28;20084;-69
2024/03/08 02:53:03;;;;;;;50.20;24.40;;;5.60;99.90;;;;;;5032356;28;20551;-69
2024/03/08 02:55:30;;;;;;;48.00;24.08;;;5.50;99.90;;;;;;5027713;28;20139;-68
2024/03/08 02:57:57;;;;;;;36.47;21.65;;;5.50;99.90;;;;;;5025677;28;20042;-69
2024/03/08 03:00:24;;;;;;;43.35;22.60;;;5.50;99.90;;;;;;5014686;28;20052;-67
2024/03/08 03:02:54;;;;;;;48.95;23.85;;;5.50;99.90;;;;;;5027066;28;20037;-71
2024/03/08 03:05:21;;;;;;;44.50;22.42;;;5.40;99.90;;;;;;5028734;28;20046;-70
2024/03/08 03:07:48;;;;;;;45.72;23.40;;;5.40;99.90;;;;;;5025764;28;20053;-69
2024/03/08 03:10:16;;;;;;;39.78;20.05;;;5.40;99.90;;;;;;5018075;28;20615;-69
2024/03/08 03:12:44;;;;;;;52.38;22.75;;;5.40;99.90;;;;;;5031599;28;20060;-70
2024/03/08 03:15:11;;;;;;;46.15;22.30;;;5.40;99.90;;;;;;5022069;28;20057;-70
2024/03/08 03:17:40;;;;;;;47.22;23.70;;;5.40;99.90;;;;;;5014455;28;20052;-69
2024/03/08 03:20:12;;;;;;;36.80;20.45;;;5.50;99.90;;;;;;5025875;28;20052;-69
2024/03/08 03:22:47;;;;;;;46.10;22.73;;;5.40;99.90;;;;;;5024791;28;20061;-69
2024/03/08 03:25:14;;;;;;;42.55;20.80;;;5.30;99.90;;;;;;5026954;28;20724;-70
2024/03/08 03:27:41;;;;;;;42.95;21.83;;;5.30;99.90;;;;;;5029554;28;20041;-69
2024/03/08 03:30:21;;;;;;;44.33;22.15;;;5.30;99.90;;;;;;5028218;28;20132;-69
2024/03/08 03:32:49;;;;;;;42.70;22.63;;;5.30;99.90;;;;;;5027910;28;20053;-70
2024/03/08 03:35:20;;;;;;;43.08;21.70;;;5.20;99.90;;;;;;5029243;28;20055;-69
2024/03/08 03:40:36;;;;;;;47.30;22.67;;;5.20;99.90;;;;;;5029115;28;20053;-70
2024/03/08 03:43:03;;;;;;;41.22;21.58;;;5.20;99.90;;;;;;5028267;28;20112;-69
2024/03/08 03:45:34;;;;;;;45.35;22.38;;;5.20;99.90;;;;;;5027193;28;20057;-71
2024/03/08 03:48:07;;;;;;;41.78;21.92;;;5.20;99.90;;;;;;5029890;28;20432;-70
2024/03/08 03:50:34;;;;;;;43.60;24.05;;;5.20;99.90;;;;;;5027867;28;20084;-69
2024/03/08 03:53:03;;;;;;;40.50;22.27;;;5.10;99.90;;;;;;5028645;28;20057;-72
2024/03/08 03:55:30;;;;;;;42.22;23.02;;;5.10;99.90;;;;;;5027754;28;20092;-68
2024/03/08 03:57:58;;;;;;;42.22;21.55;;;5.10;99.90;;;;;;5029038;28;20053;-68
2024/03/08 04:00:26;;;;;;;45.83;23.20;;;5.10;99.90;;;;;;5029068;28;20420;-68
2024/03/08 04:02:54;;;;;;;46.40;24.60;;;5.10;99.90;;;;;;5028627;28;20053;-69
2024/03/08 04:05:21;;;;;;;48.13;23.17;;;5.10;99.90;;;;;;5027013;28;20052;-68
2024/03/08 04:07:48;;;;;;;47.50;23.25;;;5.10;99.90;;;;;;5027330;28;20079;-69
2024/03/08 04:10:15;;;;;;;37.10;22.25;;;5.20;99.90;;;;;;5027338;28;20554;-69
2024/03/08 04:12:42;;;;;;;44.70;22.20;;;5.20;99.90;;;;;;5028359;28;20045;-68
2024/03/08 04:15:10;;;;;;;39.45;22.42;;;5.20;99.90;;;;;;5027703;28;20049;-68
2024/03/08 04:17:38;;;;;;;38.72;19.95;;;5.20;99.90;;;;;;5028893;28;20050;-68
2024/03/08 04:20:09;;;;;;;48.03;22.95;;;5.20;99.90;;;;;;5029363;28;20132;-68
2024/03/08 04:22:37;;;;;;;39.88;21.10;;;5.20;99.90;;;;;;5030649;28;20081;-68
2024/03/08 04:25:04;;;;;;;43.17;21.90;;;5.20;99.90;;;;;;5028157;28;20071;-68
2024/03/08 04:27:32;;;;;;;46.78;22.42;;;5.20;99.90;;;;;;5029496;28;20532;-68
2024/03/08 04:30:00;;;;;;;53.53;24.73;;;5.20;99.90;;;;;;5027972;28;20037;-68
2024/03/08 04:32:29;;;;;;;36.53;21.55;;;5.20;99.90;;;;;;5033593;28;20049;-69
2024/03/08 04:34:56;;;;;;;43.25;21.77;;;5.10;99.90;;;;;;5021806;28;20045;-67
2024/03/08 04:37:24;;;;;;;41.97;21.25;;;5.10;99.90;;;;;;5018320;28;20084;-69
2024/03/08 04:39:52;;;;;;;39.22;20.52;;;5.10;99.90;;;;;;5028446;28;20077;-68
2024/03/08 04:42:18;;;;;;;39.60;21.45;;;5.10;99.90;;;;;;5027583;28;20054;-69
2024/03/08 04:44:45;;;;;;;36.00;19.77;;;5.10;99.90;;;;;;5026675;28;20132;-68
2024/03/08 04:47:12;;;;;;;34.50;20.15;;;5.10;99.90;;;;;;5024454;28;20056;-68
2024/03/08 04:49:39;;;;;;;47.35;21.95;;;5.00;99.90;;;;;;5019396;28;20108;-68
2024/03/08 04:52:06;;;;;;;38.97;21.77;;;5.00;99.90;;;;;;5026373;28;20045;-68
2024/03/08 04:54:34;;;;;;;40.92;21.20;;;5.00;99.90;;;;;;5037386;28;20235;-69
2024/03/08 04:57:01;;;;;;;42.58;21.02;;;5.00;99.90;;;;;;5035037;28;20095;-69
2024/03/08 04:59:32;;;;;;;40.30;22.13;;;5.00;99.90;;;;;;5041835;28;20084;-69
2024/03/08 05:01:59;;;;;;;37.60;20.15;;;4.90;99.90;;;;;;5026552;28;20060;-70
2024/03/08 05:04:26;;;;;;;38.17;21.13;;;5.00;99.90;;;;;;5027390;28;20050;-69
2024/03/08 05:06:53;;;;;;;44.53;21.38;;;5.00;99.90;;;;;;5026317;28;20099;-69
2024/03/08 05:09:20;;;;;;;38.75;20.73;;;5.00;99.90;;;;;;5026575;28;20045;-68
2024/03/08 05:11:47;;;;;;;37.47;20.65;;;5.00;99.90;;;;;;5028241;28;20049;-69
2024/03/08 05:14:19;;;;;;;42.05;20.92;;;5.00;99.90;;;;;;5014877;28;20049;-68
2024/03/08 05:16:48;;;;;;;40.25;20.95;;;5.00;99.90;;;;;;5027711;28;20559;-68
2024/03/08 05:19:19;;;;;;;39.80;19.92;;;5.00;99.90;;;;;;5022520;28;20052;-68
2024/03/08 05:21:46;;;;;;;36.35;20.13;;;4.90;99.90;;;;;;5016319;28;20049;-69
2024/03/08 05:24:15;;;;;;;40.15;20.10;;;4.90;99.90;;;;;;5024730;28;20896;-68
2024/03/08 05:26:42;;;;;;;41.53;22.38;;;4.90;99.90;;;;;;5030967;28;20071;-68
2024/03/08 05:29:09;;;;;;;36.70;20.02;;;5.00;99.90;;;;;;5019736;28;20418;-68
2024/03/08 05:31:55;;;;;;;40.92;19.67;;;4.90;99.90;;;;;;5026888;28;20107;-68
2024/03/08 05:34:22;;;;;;;37.33;20.17;;;4.80;99.90;;;;;;5026070;28;20045;-69
2024/03/08 05:36:50;;;;;;;39.22;18.55;;;4.90;99.90;;;;;;5037613;28;20052;-69
2024/03/08 05:39:17;;;;;;;38.65;19.60;;;4.90;99.90;;;;;;5024355;28;20047;-69
2024/03/08 05:41:45;;;;;;;38.40;22.27;;;4.90;99.90;;;;;;5018618;28;20136;-69
2024/03/08 05:44:12;;;;;;;38.10;21.70;;;4.90;99.90;;;;;;5025898;28;20103;-69
2024/03/08 05:46:39;;;;;;;37.78;19.42;;;4.90;99.90;;;;;;5041409;28;20052;-70
2024/03/08 05:49:06;;;;;;;39.47;20.73;;;4.90;99.90;;;;;;5023389;28;20081;-69
2024/03/08 05:51:34;;;;;;;43.65;19.58;;;4.90;99.90;;;;;;5028853;28;20057;-68
2024/03/08 05:54:05;;;;;;;46.20;21.88;;;4.90;99.90;;;;;;5026382;28;20047;-69
2024/03/08 05:56:33;;;;;;;44.60;20.90;;;4.90;99.90;;;;;;5038281;28;20051;-70
2024/03/08 05:59:00;;;;;;;35.83;20.23;;;4.90;99.90;;;;;;5026035;28;20041;-69
2024/03/08 06:01:27;;;;;;;41.00;19.95;;;4.90;99.90;;;;;;5025317;28;20107;-69
2024/03/08 06:03:57;;;;;;;41.25;19.80;;;4.90;99.90;;;;;;5034571;28;20049;-68
2024/03/08 06:06:24;;;;;;;43.53;21.02;;;4.90;99.90;;;;;;5026414;28;20049;-68
2024/03/08 06:08:51;;;;;;;44.92;23.13;;;4.80;99.90;;;;;;5025815;28;20050;-67
2024/03/08 06:11:18;;;;;;;43.35;21.85;;;4.80;99.90;;;;;;5025329;28;20041;-68
2024/03/08 06:13:45;;;;;;;48.22;21.70;;;4.80;99.90;;;;;;5026723;28;20049;-67
2024/03/08 06:16:12;;;;;;;43.95;21.80;;;4.80;99.90;;;;;;5026924;28;20049;-68
2024/03/08 06:18:39;;;;;;;45.30;22.77;;;4.90;99.90;;;;;;5024614;28;20041;-67
2024/03/08 06:21:06;;;;;;;36.42;20.15;;;4.80;99.90;;;;;;5033140;28;20045;-68
2024/03/08 06:23:33;;;;;;;48.97;24.17;;;4.90;99.90;;;;;;5009581;28;20128;-67
2024/03/08 06:26:00;;;;;;;41.28;22.63;;;4.90;99.90;;;;;;5026143;28;20575;-69
2024/03/08 06:28:27;;;;;;;44.33;22.10;;;4.80;99.90;;;;;;5025894;28;20056;-68
2024/03/08 06:30:54;;;;;;;53.38;26.02;;;4.90;99.90;;;;;;5024283;28;20095;-70
2024/03/08 06:33:21;;;;;;;50.63;24.00;;;4.90;99.90;;;;;;5024875;28;20481;-68
2024/03/08 06:35:48;;;;;;;49.58;25.17;;;5.00;99.90;;;;;;5024138;28;20049;-69
2024/03/08 06:38:16;;;;;;;47.10;23.52;;;4.80;99.90;;;;;;5028215;28;20135;-68
2024/03/08 06:40:43;;;;;;;44.20;20.95;;;4.90;99.90;;;;;;5027807;28;20053;-68
2024/03/08 06:43:14;;;;;;;41.22;21.30;;;4.90;99.90;;;;;;5024968;28;20045;-68
2024/03/08 06:45:41;;;;;;;49.05;23.15;;;4.90;99.90;;;;;;5025446;28;20049;-68
2024/03/08 06:48:09;;;;;;;49.92;24.73;;;4.90;99.90;;;;;;5024390;28;20122;-68
2024/03/08 06:50:36;;;;;;;53.47;24.75;;;4.90;99.90;;;;;;5024843;28;20041;-67
2024/03/08 06:53:03;;;;;;;48.03;23.33;;;4.90;99.90;;;;;;5026467;28;20061;-68
2024/03/08 06:55:30;;;;;;;51.30;23.48;;;4.90;99.90;;;;;;5021659;28;20065;-68
2024/03/08 06:57:57;;;;;;;54.17;24.23;;;5.00;99.90;;;;;;5020468;28;20497;-68
2024/03/08 07:00:26;;;;;;;44.42;24.58;;;4.90;99.90;;;;;;5019011;28;20045;-69
2024/03/08 07:02:54;;;;;;;44.33;22.85;;;4.90;99.90;;;;;;5029712;28;20057;-68
2024/03/08 07:05:21;;;;;;;46.15;24.35;;;5.00;99.90;;;;;;5028490;28;20041;-68
2024/03/08 07:07:49;;;;;;;51.88;25.00;;;5.00;99.90;;;;;;5028304;28;20542;-68
2024/03/08 07:10:16;;;;;;;52.05;26.25;;;5.00;99.90;;;;;;5020348;28;20060;-68
2024/03/08 07:12:43;;;;;;;47.78;23.95;;;5.00;99.90;;;;;;5035328;28;20571;-68
2024/03/08 07:15:13;;;;;;;51.70;24.58;;;5.00;99.90;;;;;;5027258;28;20496;-68
2024/03/08 07:17:41;;;;;;;49.78;23.15;;;5.10;99.90;;;;;;5027795;28;20077;-68
2024/03/08 07:20:11;;;;;;;46.90;23.35;;;5.10;99.90;;;;;;5015562;28;20049;-69
2024/03/08 07:22:38;;;;;;;54.92;23.95;;;5.10;99.90;;;;;;5028171;28;20057;-68
2024/03/08 07:25:21;;;;;;;50.13;22.50;;;5.10;99.90;;;;;;5037859;28;20049;-68
2024/03/08 07:27:53;;;;;;;49.67;22.80;;;5.10;99.90;;;;;;5055774;28;20049;-69
2024/03/08 07:33:07;;;;;;;50.55;24.90;;;5.20;99.90;;;;;;5027788;28;20049;-65
2024/03/08 07:35:36;;;;;;;51.85;24.67;;;5.30;99.90;;;;;;5035294;28;20343;-65
2024/03/08 07:38:08;;;;;;;51.05;21.85;;;5.30;99.90;;;;;;5027625;28;20053;-66
2024/03/08 07:40:44;;;;;;;49.95;23.48;;;5.40;99.90;;;;;;5026667;28;20048;-66
2024/03/08 07:43:11;;;;;;;51.17;22.00;;;5.40;99.90;;;;;;5030570;28;20155;-67
2024/03/08 07:45:38;;;;;;;51.55;24.23;;;5.40;99.90;;;;;;5033418;28;20433;-68
2024/03/08 07:48:09;;;;;;;56.35;24.15;;;5.40;99.90;;;;;;5028462;28;20103;-67
2024/03/08 07:50:38;;;;;;;63.03;23.83;;;5.50;99.90;;;;;;5032689;28;20068;-68
2024/03/08 07:53:07;;;;;;;56.85;25.45;;;5.50;99.90;;;;;;5026637;28;20503;-70
2024/03/08 07:55:35;;;;;;;52.15;24.70;;;5.60;99.90;;;;;;5026517;28;20500;-68
2024/03/08 07:58:02;;;;;;;60.55;23.52;;;5.70;99.90;;;;;;5026626;28;20045;-67
2024/03/08 08:00:32;;;;;;;55.20;22.67;;;5.70;99.90;;;;;;5025644;28;20057;-67
2024/03/08 08:02:59;;;;;;;50.08;25.45;;;5.80;99.90;;;;;;5026595;28;20056;-67
2024/03/08 08:05:26;;;;;;;49.10;24.65;;;5.80;99.90;;;;;;5029105;28;20498;-65
2024/03/08 08:07:53;;;;;;;51.50;23.23;;;5.80;99.90;;;;;;5026172;28;20049;-66
2024/03/08 08:10:24;;;;;;;60.55;24.80;;;5.80;99.90;;;;;;5025768;28;20064;-66
2024/03/08 08:12:52;;;;;;;48.53;24.13;;;5.80;99.90;;;;;;5021618;28;20128;-67
2024/03/08 08:15:20;;;;;;;49.85;23.25;;;5.80;99.90;;;;;;5026366;28;20081;-66
2024/03/08 08:17:51;;;;;;;45.92;24.10;;;5.90;99.90;;;;;;5019402;28;20060;-67
2024/03/08 08:20:18;;;;;;;67.93;27.52;;;5.90;99.90;;;;;;5016505;28;20466;-66
2024/03/08 08:22:47;;;;;;;50.55;24.27;;;6.00;99.90;;;;;;5021166;28;20061;-75
2024/03/08 08:25:15;;;;;;;49.22;24.33;;;6.00;99.90;;;;;;5018730;28;20037;-66
2024/03/08 08:27:42;;;;;;;56.83;22.50;;;6.00;99.90;;;;;;5023229;28;20508;-67
2024/03/08 08:30:11;;;;;;;49.65;23.42;;;6.10;99.90;;;;;;5023166;28;20046;-67
2024/03/08 08:32:42;;;;;;;54.10;23.35;;;6.10;99.90;;;;;;5025335;28;20049;-67
2024/03/08 08:35:09;;;;;;;47.60;24.58;;;6.20;99.90;;;;;;5025373;28;20120;-66
2024/03/08 08:37:38;;;;;;;45.72;22.77;;;6.20;99.90;;;;;;5026732;28;20061;-66
2024/03/08 08:40:09;;;;;;;49.88;22.52;;;6.30;99.90;;;;;;5030275;28;20111;-64
2024/03/08 08:42:38;;;;;;;42.08;21.95;;;6.30;99.90;;;;;;5022559;28;20049;-67
2024/03/08 08:45:09;;;;;;;47.92;22.73;;;6.40;99.90;;;;;;5021794;28;20049;-67
2024/03/08 08:47:44;;;;;;;44.33;21.98;;;6.40;99.90;;;;;;5022074;28;20053;-66
2024/03/08 08:50:12;;;;;;;46.85;23.55;;;6.40;99.90;;;;;;5027084;28;20046;-66
2024/03/08 08:52:39;;;;;;;48.67;23.13;;;6.50;99.90;;;;;;5019897;28;20095;-66
2024/03/08 08:55:07;;;;;;;51.05;24.40;;;6.50;99.90;;;;;;5020104;28;20045;-67
2024/03/08 08:57:35;;;;;;;52.40;22.55;;;6.60;99.90;;;;;;5024955;28;20104;-66
2024/03/08 09:00:07;;;;;;;55.33;23.65;;;6.60;99.90;;;;;;5024229;28;20501;-66
2024/03/08 09:02:34;;;;;;;57.47;23.23;;;6.70;99.90;;;;;;5026652;28;20045;-66
2024/03/08 09:05:01;;;;;;;47.95;22.35;;;6.90;99.90;;;;;;5024972;28;20053;-66
2024/03/08 09:07:29;;;;;;;43.08;21.85;;;6.90;99.90;;;;;;5023531;28;20104;-67
2024/03/08 09:09:58;;;;;;;38.63;21.35;;;7.20;99.90;;;;;;5057185;28;20100;-67
2024/03/08 09:12:25;;;;;;;42.75;23.52;;;7.40;99.90;;;;;;5034340;28;20076;-67
2024/03/08 09:14:52;;;;;;;43.75;22.25;;;7.70;99.90;;;;;;5026724;28;20037;-66
2024/03/08 09:17:22;;;;;;;43.13;20.73;;;8.00;99.90;;;;;;5021178;28;20524;-67
2024/03/08 09:19:49;;;;;;;45.67;22.42;;;8.10;99.90;;;;;;5019556;28;20103;-67
2024/03/08 09:22:16;;;;;;;47.55;22.48;;;8.30;99.90;;;;;;5017585;28;20049;-67
2024/03/08 09:24:46;;;;;;;44.65;20.95;;;8.40;99.90;;;;;;5022660;28;20049;-66
2024/03/08 09:27:13;;;;;;;46.80;21.50;;;8.50;99.90;;;;;;5026045;28;20053;-66
2024/03/08 09:29:40;;;;;;;43.80;21.60;;;8.50;99.90;;;;;;5019825;28;20129;-66
2024/03/08 09:32:07;;;;;;;40.72;20.80;;;8.60;99.90;;;;;;5023925;28;20123;-69
2024/03/08 09:34:34;;;;;;;36.00;19.02;;;8.50;99.90;;;;;;5018061;28;20613;-67
2024/03/08 09:37:04;;;;;;;42.78;20.98;;;8.50;99.90;;;;;;5022782;28;20081;-67
2024/03/08 09:39:33;;;;;;;36.65;19.65;;;8.40;99.90;;;;;;5060647;28;20071;-67
2024/03/08 09:42:04;;;;;;;49.88;20.33;;;8.40;99.90;;;;;;5025721;28;20057;-66
2024/03/08 09:44:30;;;;;;;37.38;21.05;;;8.30;99.90;;;;;;5025563;28;20067;-67
2024/03/08 09:46:58;;;;;;;46.55;20.60;;;8.30;99.90;;;;;;5023418;28;20067;-67
2024/03/08 09:49:25;;;;;;;44.88;20.15;;;8.30;99.90;;;;;;5026202;28;20057;-67
2024/03/08 09:51:52;;;;;;;33.65;17.80;;;8.30;99.90;;;;;;5025263;28;20134;-66
2024/03/08 09:54:21;;;;;;;37.20;21.27;;;8.30;99.90;;;;;;5027225;28;20123;-66
2024/03/08 09:56:51;;;;;;;41.28;21.02;;;8.20;99.90;;;;;;5024861;28;20171;-67
2024/03/08 10:01:56;;;;;;;31.02;19.13;;;8.10;99.90;;;;;;5026643;28;20122;-67
2024/03/08 10:04:23;;;;;;;41.63;19.42;;;8.20;99.90;;;;;;5026654;28;20488;-68
2024/03/08 10:06:50;;;;;;;31.75;19.40;;;8.30;99.90;;;;;;5024972;28;20115;-66
2024/03/08 10:09:17;;;;;;;45.78;20.45;;;8.40;99.90;;;;;;5026457;28;20057;-66
2024/03/08 10:11:45;;;;;;;50.13;20.27;;;8.30;99.90;;;;;;5024485;28;20064;-66
2024/03/08 10:14:12;;;;;;;34.10;19.92;;;8.30;99.90;;;;;;5026231;28;20068;-66
2024/03/08 10:16:39;;;;;;;36.05;21.42;;;8.30;99.90;;;;;;5014406;28;20053;-64
2024/03/08 10:19:06;;;;;;;35.30;18.92;;;8.40;99.90;;;;;;5024664;28;20048;-66
2024/03/08 10:21:33;;;;;;;34.35;19.20;;;8.50;99.90;;;;;;5037655;28;20494;-66
2024/03/08 10:24:02;;;;;;;37.22;18.60;;;8.50;99.90;;;;;;5008014;28;20047;-67
2024/03/08 10:26:29;;;;;;;41.05;18.58;;;8.40;99.90;;;;;;5014285;28;20061;-66
2024/03/08 10:28:57;;;;;;;31.67;18.02;;;8.40;99.90;;;;;;5010107;28;20565;-65
2024/03/08 10:31:25;;;;;;;34.35;18.45;;;8.40;99.90;;;;;;5025061;28;20099;-66
2024/03/08 10:33:52;;;;;;;37.63;19.48;;;8.30;99.90;;;;;;5024071;28;20076;-66
2024/03/08 10:36:19;;;;;;;32.75;17.85;;;8.30;99.90;;;;;;5025806;28;20057;-67
2024/03/08 10:38:46;;;;;;;34.13;19.65;;;8.30;99.90;;;;;;5025658;28;20037;-66
2024/03/08 10:41:16;;;;;;;30.27;18.17;;;8.50;99.90;;;;;;5029038;28;20484;-67
2024/03/08 10:43:45;;;;;;;37.92;20.08;;;8.50;99.90;;;;;;5027077;28;20396;-66
2024/03/08 10:46:18;;;;;;;34.55;17.38;;;8.50;99.90;;;;;;5029509;28;20085;-66
2024/03/08 10:48:46;;;;;;;30.15;17.67;;;8.60;99.90;;;;;;5028179;28;20049;-67
2024/03/08 10:51:12;;;;;;;29.88;17.00;;;8.50;99.90;;;;;;5018327;28;20046;-66
2024/03/08 10:53:41;;;;;;;35.42;18.25;;;8.60;99.90;;;;;;5025447;28;20062;-67
2024/03/08 10:56:09;;;;;;;31.38;17.08;;;8.60;99.90;;;;;;5028559;28;20046;-66
2024/03/08 10:58:37;;;;;;;32.95;17.52;;;8.60;99.90;;;;;;5011481;28;20511;-66
2024/03/08 11:01:04;;;;;;;30.20;18.00;;;8.70;99.90;;;;;;5027972;28;20127;-67
2024/03/08 11:03:40;;;;;;;33.35;16.83;;;8.70;99.90;;;;;;5027875;28;20049;-66
2024/03/08 11:06:45;;;;;;;30.55;17.42;;;8.60;99.90;;;;;;5029705;28;20076;-66
2024/03/08 11:09:28;;;;;;;;;;;8.70;99.90;;;;;;5022225;28;20073;-66
2024/03/08 11:12:20;;;;;;;27.55;16.15;;;8.80;99.90;;;;;;5028141;28;19932;-67
2024/03/08 11:14:51;;;;;;;40.30;18.30;;;8.90;99.90;;;;;;5027186;28;20510;-66
2024/03/08 11:17:25;;;;;;;30.30;16.77;;;8.90;99.90;;;;;;5029786;28;20045;-66
2024/03/08 11:19:52;;;;;;;31.42;16.77;;;9.00;99.90;;;;;;5028279;28;20057;-66
2024/03/08 11:22:31;;;;;;;30.10;16.60;;;9.10;99.90;;;;;;5027850;28;20057;-67
2024/03/08 11:25:09;;;;;;;34.90;17.27;;;9.10;99.90;;;;;;5022602;28;20064;-65
2024/03/08 11:27:37;;;;;;;31.80;15.88;;;9.10;99.90;;;;;;5029128;28;20130;-65
2024/03/08 11:30:17;;;;;;;31.00;15.52;;;9.10;99.90;;;;;;5027910;28;20080;-66
2024/03/08 11:32:46;;;;;;;36.17;16.40;;;9.10;99.90;;;;;;5028042;28;20111;-66
2024/03/08 11:35:20;;;;;;;33.03;17.52;;;9.30;99.90;;;;;;5027865;28;20045;-65
2024/03/08 11:37:47;;;;;;;42.30;19.55;;;9.40;99.90;;;;;;5027847;28;20042;-66
2024/03/08 11:40:16;;;;;;;29.48;16.23;;;9.40;99.90;;;;;;5026777;28;20076;-66
2024/03/08 11:42:47;;;;;;;31.27;17.17;;;9.20;99.90;;;;;;5028765;28;20084;-66
2024/03/08 11:45:16;;;;;;;29.52;16.15;;;9.10;99.90;;;;;;5027511;28;20049;-66
2024/03/08 11:47:46;;;;;;;35.97;17.10;;;9.20;99.90;;;;;;5026867;28;20068;-67
2024/03/08 11:50:14;;;;;;;32.97;17.80;;;9.10;99.90;;;;;;5028346;28;20072;-67
2024/03/08 11:52:41;;;;;;;28.30;16.40;;;9.00;99.90;;;;;;5028580;28;20475;-67
2024/03/08 11:55:08;;;;;;;26.65;15.80;;;9.00;99.90;;;;;;5027576;28;20503;-67
2024/03/08 11:57:35;;;;;;;29.98;17.02;;;9.10;99.90;;;;;;5028536;28;20049;-66
2024/03/08 12:00:06;;;;;;;32.13;16.65;;;9.20;99.90;;;;;;5026316;28;20046;-67
2024/03/08 12:02:38;;;;;;;36.40;17.92;;;9.20;99.90;;;;;;5027579;28;20061;-66
2024/03/08 12:05:10;;;;;;;29.73;16.55;;;9.10;99.90;;;;;;5025887;28;20083;-68
2024/03/08 12:07:36;;;;;;;30.65;16.98;;;9.20;99.90;;;;;;5027346;28;20412;-69
2024/03/08 12:10:22;;;;;;;31.98;18.58;;;9.10;99.90;;;;;;5026899;28;20046;-65
2024/03/08 12:12:53;;;;;;;41.28;17.85;;;9.10;99.90;;;;;;5028209;28;20099;-65
2024/03/08 12:15:21;;;;;;;35.97;18.45;;;9.10;99.90;;;;;;5027361;28;20041;-66
2024/03/08 12:17:52;;;;;;;31.98;16.38;;;9.20;99.90;;;;;;5025298;28;20164;-67
2024/03/08 12:20:25;;;;;;;35.72;19.10;;;9.20;99.90;;;;;;5026724;28;20053;-67
2024/03/08 12:22:58;;;;;;;29.50;17.92;;;9.20;99.90;;;;;;5026266;28;20049;-67
2024/03/08 12:25:37;;;;;;;33.00;18.50;;;9.20;99.90;;;;;;5026891;28;20092;-67
2024/03/08 12:28:10;;;;;;;39.03;18.42;;;9.20;99.90;;;;;;5028282;28;20049;-67
2024/03/08 12:30:48;;;;;;;41.35;18.85;;;9.20;99.90;;;;;;5025393;28;20041;-67
2024/03/08 12:33:15;;;;;;;35.58;19.77;;;9.10;99.90;;;;;;5026870;28;20551;-67
2024/03/08 12:35:57;;;;;;;31.90;19.20;;;9.10;99.90;;;;;;5025614;28;20068;-67
2024/03/08 12:38:27;;;;;;;35.03;19.80;;;9.30;99.90;;;;;;5023123;28;20045;-66
2024/03/08 12:41:01;;;;;;;33.60;19.13;;;9.30;99.90;;;;;;5035397;28;20088;-67
2024/03/08 12:43:33;;;;;;;36.50;20.83;;;9.30;99.90;;;;;;5025226;28;20055;-66
2024/03/08 12:46:00;;;;;;;33.83;19.65;;;9.20;99.90;;;;;;5026703;28;20087;-67
2024/03/08 12:48:27;;;;;;;34.60;20.15;;;9.10;99.90;;;;;;5023119;28;20103;-67
2024/03/08 12:50:54;;;;;;;35.40;22.23;;;9.20;99.90;;;;;;5026201;28;20086;-66
2024/03/08 12:53:23;;;;;;;32.75;20.75;;;9.20;99.90;;;;;;5025072;28;20045;-67